Time;durP1;ratioP1;P1;durP2;ratioP2;P2;SDS_P1;SDS_P2;PMS_P1;PMS_P2;Temp;Humidity;BMP_temperature;BMP_pressure;BME280_temperature;BME280_humidity;BME280_pressure;Samples;Min_cycle;Max_cycle;Signal;HPM_P1;HPM_P2
2023/03/08 00:00:57;;;;;;;5.97;2.78;;;0.50;99.90;;;;;;5053368;28;20049;-77
2023/03/08 00:03:22;;;;;;;6.90;3.20;;;-0.60;99.90;;;;;;5071588;28;20396;-77
2023/03/08 00:05:48;;;;;;;7.22;3.22;;;-0.60;99.90;;;;;;5070568;28;20055;-77
2023/03/08 00:08:15;;;;;;;7.20;3.30;;;-0.50;99.90;;;;;;5057979;28;20369;-77
2023/03/08 00:10:41;;;;;;;7.65;3.53;;;-0.50;99.90;;;;;;5070167;28;20044;-77
2023/03/08 00:13:07;;;;;;;7.80;3.90;;;-0.50;99.90;;;;;;5056560;28;20048;-77
2023/03/08 00:15:33;;;;;;;8.43;3.65;;;0.40;99.90;;;;;;5071914;28;20431;-77
2023/03/08 00:17:58;;;;;;;7.25;3.78;;;-0.50;99.90;;;;;;5046893;28;20044;-77
2023/03/08 00:20:24;;;;;;;7.22;3.80;;;-0.50;99.90;;;;;;5067157;28;20055;-77
2023/03/08 00:22:50;;;;;;;7.75;4.10;;;-0.50;99.90;;;;;;5068176;28;20044;-77
2023/03/08 00:25:16;;;;;;;7.38;3.85;;;-0.50;99.90;;;;;;5065833;28;20132;-77
2023/03/08 00:27:41;;;;;;;7.63;4.28;;;-0.60;99.90;;;;;;5057926;28;20110;-77
2023/03/08 00:30:09;;;;;;;7.50;4.03;;;-0.40;99.90;;;;;;5074652;28;20044;-77
2023/03/08 00:32:35;;;;;;;10.13;4.05;;;-0.60;99.90;;;;;;5072084;28;20053;-77
2023/03/08 00:35:00;;;;;;;10.80;4.57;;;-0.50;99.90;;;;;;5091585;28;20070;-77
2023/03/08 00:37:26;;;;;;;8.82;4.00;;;-0.60;99.90;;;;;;5060229;28;20056;-77
2023/03/08 00:39:53;;;;;;;8.05;4.40;;;-0.40;99.90;;;;;;5040143;28;20548;-77
2023/03/08 00:42:22;;;;;;;9.85;4.80;;;-0.20;99.90;;;;;;5054667;28;20049;-77
2023/03/08 00:44:48;;;;;;;7.93;4.25;;;-0.70;99.90;;;;;;5056331;28;20044;-77
2023/03/08 00:47:14;;;;;;;10.00;4.45;;;-0.40;99.90;;;;;;5063817;28;20362;-77
2023/03/08 00:49:41;;;;;;;9.57;4.50;;;-0.60;99.90;;;;;;5070612;28;20057;-77
2023/03/08 00:52:07;;;;;;;7.50;4.40;;;-0.70;99.90;;;;;;5065211;28;20122;-77
2023/03/08 00:54:33;;;;;;;8.13;4.85;;;-0.60;99.90;;;;;;5068280;28;20357;-77
2023/03/08 00:56:59;;;;;;;8.55;4.57;;;-0.70;99.90;;;;;;5074524;28;20052;-77
2023/03/08 00:59:27;;;;;;;10.80;4.97;;;-0.70;99.90;;;;;;5069065;28;20044;-77
2023/03/08 01:01:53;;;;;;;10.18;4.57;;;-0.70;99.90;;;;;;5074902;28;20048;-76
2023/03/08 01:04:19;;;;;;;8.70;4.90;;;-0.80;99.90;;;;;;5057710;28;20135;-77
2023/03/08 01:06:44;;;;;;;8.65;4.45;;;-0.80;99.90;;;;;;5057180;28;20067;-77
2023/03/08 01:09:11;;;;;;;9.52;4.88;;;-0.70;99.90;;;;;;5074015;28;20045;-77
2023/03/08 01:11:37;;;;;;;9.50;5.03;;;0.20;99.90;;;;;;5058363;28;20060;-77
2023/03/08 01:14:05;;;;;;;10.05;5.20;;;-0.80;99.90;;;;;;5061647;28;20052;-77
2023/03/08 01:16:32;;;;;;;10.43;4.90;;;-0.70;99.90;;;;;;5073670;28;20055;-77
2023/03/08 01:18:59;;;;;;;8.20;5.18;;;-0.60;99.90;;;;;;5060645;28;20079;-77
2023/03/08 01:21:26;;;;;;;10.23;5.40;;;-0.60;99.90;;;;;;5073836;28;20501;-77
2023/03/08 01:23:52;;;;;;;9.23;5.43;;;-0.80;99.90;;;;;;5051571;28;20089;-77
2023/03/08 01:26:26;;;;;;;10.07;5.00;;;-0.80;99.90;;;;;;5058861;28;20135;-77
2023/03/08 01:29:10;;;;;;;8.70;4.97;;;-0.80;99.90;;;;;;5074021;28;20045;-77
2023/03/08 01:31:36;;;;;;;9.93;5.35;;;-0.90;99.90;;;;;;5056434;28;20098;-77
2023/03/08 01:34:02;;;;;;;9.95;6.22;;;-0.80;99.90;;;;;;5068065;28;20056;-77
2023/03/08 01:36:46;;;;;;;9.38;5.40;;;-0.90;99.90;;;;;;5067085;28;20055;-77
2023/03/08 01:39:12;;;;;;;8.43;5.07;;;-0.80;99.90;;;;;;5068116;28;20071;-77
2023/03/08 01:41:38;;;;;;;9.82;6.07;;;-0.90;99.90;;;;;;5059416;28;20464;-77
2023/03/08 01:44:03;;;;;;;12.23;6.70;;;-0.90;99.90;;;;;;5060594;28;20099;-77
2023/03/08 01:46:34;;;;;;;10.25;5.78;;;-0.90;99.90;;;;;;5036593;28;20083;-77
2023/03/08 01:49:20;;;;;;;11.25;5.82;;;-0.50;99.90;;;;;;5064264;28;20059;-77
2023/03/08 01:52:07;;;;;;;12.77;7.32;;;-1.00;99.90;;;;;;5053098;28;20041;-77
2023/03/08 01:54:37;;;;;;;9.65;6.07;;;-1.00;99.90;;;;;;5050530;28;20135;-77
2023/03/08 01:57:07;;;;;;;12.13;6.72;;;-1.00;99.90;;;;;;5065981;28;20102;-77
2023/03/08 01:59:34;;;;;;;10.82;7.15;;;-1.00;99.90;;;;;;5050126;28;20136;-77
2023/03/08 02:02:01;;;;;;;12.70;7.50;;;-0.80;99.90;;;;;;5053041;28;20044;-77
2023/03/08 02:04:27;;;;;;;13.10;7.72;;;-0.90;99.90;;;;;;5065091;28;20048;-78
2023/03/08 02:06:55;;;;;;;11.18;6.85;;;-0.80;99.90;;;;;;5063689;28;20044;-77
2023/03/08 02:09:21;;;;;;;10.13;6.75;;;-1.00;99.90;;;;;;5054532;28;20091;-77
2023/03/08 02:11:48;;;;;;;12.02;7.97;;;-1.00;99.90;;;;;;5051768;28;20052;-77
2023/03/08 02:14:14;;;;;;;13.02;8.07;;;-1.00;99.90;;;;;;5052606;28;20048;-77
2023/03/08 02:16:39;;;;;;;11.27;7.07;;;-1.00;99.90;;;;;;5057577;28;20102;-77
2023/03/08 02:19:14;;;;;;;12.45;7.00;;;-1.10;99.90;;;;;;5055901;28;20083;-77
2023/03/08 02:21:39;;;;;;;14.75;7.70;;;-1.10;99.90;;;;;;5057850;28;20072;-77
2023/03/08 02:24:16;;;;;;;12.32;7.78;;;-0.90;99.90;;;;;;5062357;28;20627;-77
2023/03/08 02:26:42;;;;;;;13.48;7.47;;;-1.10;99.90;;;;;;5065115;28;20493;-77
2023/03/08 02:29:08;;;;;;;13.90;8.02;;;-1.00;99.90;;;;;;5045565;28;20094;-77
2023/03/08 02:31:34;;;;;;;11.57;7.40;;;-0.90;99.90;;;;;;5053636;28;20053;-77
2023/03/08 02:33:59;;;;;;;12.70;7.93;;;-1.20;99.90;;;;;;5049950;28;20033;-77
2023/03/08 02:36:25;;;;;;;12.35;8.00;;;-1.20;99.90;;;;;;5071588;28;20044;-76
2023/03/08 02:38:51;;;;;;;11.80;7.47;;;-0.20;99.90;;;;;;5041147;28;20045;-77
2023/03/08 02:41:16;;;;;;;14.38;9.30;;;-1.00;99.90;;;;;;5060624;28;20036;-77
2023/03/08 02:43:42;;;;;;;14.43;8.88;;;-0.90;99.90;;;;;;5070585;28;20092;-77
2023/03/08 02:46:11;;;;;;;15.80;10.15;;;-1.20;99.90;;;;;;5071901;28;20123;-77
2023/03/08 02:48:37;;;;;;;16.58;9.70;;;-1.20;99.90;;;;;;5069263;28;20044;-77
2023/03/08 02:51:03;;;;;;;16.27;9.98;;;-1.20;99.90;;;;;;5056775;28;20044;-76
2023/03/08 02:53:29;;;;;;;15.23;9.40;;;-1.20;99.90;;;;;;5052295;28;20370;-77
2023/03/08 02:55:54;;;;;;;18.15;10.80;;;-1.20;99.90;;;;;;5070401;28;20048;-77
2023/03/08 02:58:20;;;;;;;16.92;11.00;;;-1.20;99.90;;;;;;5070278;28;20056;-76
2023/03/08 03:00:46;;;;;;;13.48;9.63;;;-0.90;99.90;;;;;;5070657;28;20048;-77
2023/03/08 03:03:12;;;;;;;13.93;9.07;;;-1.20;99.90;;;;;;5071879;28;20044;-77
2023/03/08 03:05:44;;;;;;;15.30;10.38;;;-1.20;99.90;;;;;;5069486;28;20131;-77
2023/03/08 03:08:11;;;;;;;15.88;10.30;;;-1.20;99.90;;;;;;5068224;28;20040;-77
2023/03/08 03:10:38;;;;;;;18.52;10.82;;;-0.70;99.90;;;;;;5065515;28;20052;-77
2023/03/08 03:13:05;;;;;;;16.80;11.18;;;-1.20;99.90;;;;;;5061501;28;20475;-76
2023/03/08 03:15:32;;;;;;;17.58;11.07;;;-0.80;99.90;;;;;;5058788;28;20061;-77
2023/03/08 03:17:58;;;;;;;14.88;9.80;;;-1.30;99.90;;;;;;5051293;28;20540;-77
2023/03/08 03:20:24;;;;;;;17.42;11.38;;;-1.30;99.90;;;;;;5062863;28;20041;-77
2023/03/08 03:22:50;;;;;;;16.88;11.00;;;-1.30;99.90;;;;;;5068767;28;20087;-77
2023/03/08 03:25:16;;;;;;;18.45;11.73;;;-1.20;99.90;;;;;;5060409;28;20469;-76
2023/03/08 03:27:42;;;;;;;17.98;12.38;;;-1.20;99.90;;;;;;5050888;28;20504;-77
2023/03/08 03:30:08;;;;;;;21.25;11.90;;;-1.20;99.90;;;;;;5071048;28;20127;-76
2023/03/08 03:32:34;;;;;;;16.85;11.15;;;-1.20;99.90;;;;;;5075817;28;20056;-77
2023/03/08 03:35:00;;;;;;;21.42;12.95;;;-1.20;99.90;;;;;;5047858;28;20384;-76
2023/03/08 03:37:26;;;;;;;19.05;12.18;;;-0.90;99.90;;;;;;5052507;28;20127;-77
2023/03/08 03:39:52;;;;;;;18.63;12.98;;;-1.00;99.90;;;;;;5066199;28;20052;-77
2023/03/08 03:42:18;;;;;;;17.70;12.05;;;-0.30;99.90;;;;;;5062946;28;20044;-77
2023/03/08 03:44:44;;;;;;;17.48;12.25;;;-1.20;99.90;;;;;;5051286;28;20049;-77
2023/03/08 03:47:10;;;;;;;16.27;11.50;;;-1.20;99.90;;;;;;5064787;28;20497;-77
2023/03/08 03:49:35;;;;;;;18.40;11.93;;;-1.30;99.90;;;;;;5051069;28;20045;-77
2023/03/08 03:52:01;;;;;;;17.75;11.75;;;-1.20;99.90;;;;;;5069426;28;20044;-77
2023/03/08 03:54:27;;;;;;;17.83;12.43;;;-1.30;99.90;;;;;;5072399;28;20059;-77
2023/03/08 03:56:56;;;;;;;14.82;10.55;;;-1.20;99.90;;;;;;5074182;28;20396;-77
2023/03/08 03:59:23;;;;;;;19.88;13.25;;;-1.30;99.90;;;;;;5059031;28;20060;-77
2023/03/08 04:01:49;;;;;;;19.10;12.52;;;-1.30;99.90;;;;;;5073182;28;20060;-77
2023/03/08 04:04:15;;;;;;;18.67;12.50;;;-1.30;99.90;;;;;;5038900;28;20053;-77
2023/03/08 04:06:40;;;;;;;19.35;12.07;;;-1.40;99.90;;;;;;5051738;28;20075;-77
2023/03/08 04:09:12;;;;;;;18.65;13.00;;;-1.40;99.90;;;;;;5074580;28;20079;-76
2023/03/08 04:11:39;;;;;;;19.45;12.85;;;-0.60;99.90;;;;;;5073450;28;20086;-77
2023/03/08 04:14:06;;;;;;;18.15;12.38;;;-1.30;99.90;;;;;;5073901;28;20048;-77
2023/03/08 04:16:33;;;;;;;18.17;12.82;;;-1.10;99.90;;;;;;5074503;28;20139;-77
2023/03/08 04:19:02;;;;;;;19.00;12.52;;;-1.30;99.90;;;;;;5074952;28;20388;-77
2023/03/08 04:21:28;;;;;;;21.63;14.48;;;-1.20;99.90;;;;;;5068480;28;20396;-77
2023/03/08 04:23:55;;;;;;;21.10;14.05;;;-1.40;99.90;;;;;;5067262;28;20044;-76
2023/03/08 04:26:21;;;;;;;20.10;12.85;;;-1.40;99.90;;;;;;5069744;28;20050;-77
2023/03/08 04:28:47;;;;;;;24.63;14.95;;;-1.20;99.90;;;;;;5044066;28;20053;-77
2023/03/08 04:31:14;;;;;;;20.42;13.43;;;-1.40;99.90;;;;;;5069199;28;20400;-77
2023/03/08 04:33:40;;;;;;;21.17;13.60;;;-0.80;99.90;;;;;;5074323;28;20049;-76
2023/03/08 04:36:06;;;;;;;20.52;13.18;;;-1.40;99.90;;;;;;5057429;28;20059;-77
2023/03/08 04:38:32;;;;;;;19.73;13.60;;;-1.40;99.90;;;;;;5059715;28;20044;-77
2023/03/08 04:41:01;;;;;;;23.42;15.52;;;-1.40;99.90;;;;;;5073138;28;20051;-77
2023/03/08 04:43:27;;;;;;;19.17;13.60;;;-1.40;99.90;;;;;;5069534;28;20068;-77
2023/03/08 04:45:53;;;;;;;19.30;13.05;;;-1.40;99.90;;;;;;5081068;28;20045;-77
2023/03/08 04:48:19;;;;;;;22.00;15.15;;;-1.40;99.90;;;;;;5073184;28;20050;-77
2023/03/08 04:50:52;;;;;;;18.30;13.45;;;-1.30;99.90;;;;;;5073562;28;20400;-77
2023/03/08 04:53:17;;;;;;;20.30;13.82;;;-0.80;99.90;;;;;;5072294;28;20048;-77
2023/03/08 04:55:43;;;;;;;19.30;12.90;;;-0.30;99.90;;;;;;5056516;28;20155;-77
2023/03/08 04:58:09;;;;;;;19.65;12.98;;;-1.40;99.90;;;;;;5067612;28;20067;-76
2023/03/08 05:00:34;;;;;;;19.58;13.13;;;-1.40;99.90;;;;;;5056425;28;20041;-77
2023/03/08 05:03:00;;;;;;;19.55;13.05;;;-1.40;99.90;;;;;;5046397;28;20131;-77
2023/03/08 05:05:26;;;;;;;19.42;13.23;;;-1.40;99.90;;;;;;5066765;28;20432;-77
2023/03/08 05:07:52;;;;;;;18.02;12.50;;;-1.40;99.90;;;;;;5063124;28;20049;-77
2023/03/08 05:10:18;;;;;;;16.48;12.43;;;-1.40;99.90;;;;;;5072128;28;20072;-77
2023/03/08 05:12:43;;;;;;;20.05;12.20;;;-1.40;99.90;;;;;;5073655;28;20061;-77
2023/03/08 05:15:10;;;;;;;16.95;11.45;;;-1.40;99.90;;;;;;5047280;28;20041;-77
2023/03/08 05:17:35;;;;;;;17.23;11.82;;;-1.40;99.90;;;;;;5054564;28;20111;-77
2023/03/08 05:20:02;;;;;;;20.83;12.65;;;-1.40;99.90;;;;;;5053333;28;20061;-77
2023/03/08 05:22:28;;;;;;;16.27;11.25;;;-1.40;99.90;;;;;;5038843;28;20060;-77
2023/03/08 05:24:54;;;;;;;16.17;11.65;;;-1.50;99.90;;;;;;5071171;28;20044;-77
2023/03/08 05:27:20;;;;;;;19.38;12.32;;;-1.50;99.90;;;;;;5053915;28;20084;-77
2023/03/08 05:29:45;;;;;;;17.65;11.05;;;-1.50;99.90;;;;;;5048537;28;20131;-77
2023/03/08 05:32:12;;;;;;;17.85;11.90;;;-1.50;99.90;;;;;;5063976;28;20068;-77
2023/03/08 05:34:38;;;;;;;17.67;11.90;;;-1.50;99.90;;;;;;5050718;28;20049;-77
2023/03/08 05:37:04;;;;;;;18.35;11.98;;;-1.30;99.90;;;;;;5056273;28;20056;-77
2023/03/08 05:39:29;;;;;;;17.63;11.38;;;-1.60;99.90;;;;;;5054499;28;20053;-77
2023/03/08 05:41:56;;;;;;;17.58;12.50;;;-1.60;99.90;;;;;;5071887;28;20043;-77
2023/03/08 05:44:21;;;;;;;18.98;11.50;;;-1.60;99.90;;;;;;5053475;28;20044;-77
2023/03/08 05:46:51;;;;;;;19.17;12.57;;;-1.60;99.90;;;;;;5069972;28;20044;-77
2023/03/08 05:49:17;;;;;;;16.17;11.75;;;-1.50;99.90;;;;;;5053402;28;20060;-77
2023/03/08 05:51:43;;;;;;;17.88;11.68;;;-1.40;99.90;;;;;;5083993;28;20076;-77
2023/03/08 05:54:09;;;;;;;15.80;10.77;;;-1.60;99.90;;;;;;5067756;28;20072;-77
2023/03/08 05:56:35;;;;;;;16.50;11.45;;;-1.50;99.90;;;;;;5049312;28;20101;-77
2023/03/08 05:59:00;;;;;;;16.65;12.60;;;-1.60;99.90;;;;;;5068227;28;20041;-77
2023/03/08 06:01:27;;;;;;;16.25;10.65;;;-1.50;99.90;;;;;;5064662;28;20074;-77
2023/03/08 06:03:55;;;;;;;15.93;11.00;;;-1.00;99.90;;;;;;5072175;28;20106;-77
2023/03/08 06:06:23;;;;;;;15.80;11.15;;;-1.60;99.90;;;;;;5063920;28;20088;-77
2023/03/08 06:08:49;;;;;;;16.75;11.85;;;-1.60;99.90;;;;;;5056548;28;20049;-77
2023/03/08 06:11:15;;;;;;;17.00;11.05;;;-1.60;99.90;;;;;;5063337;28;20470;-77
2023/03/08 06:13:42;;;;;;;14.77;10.25;;;-1.20;99.90;;;;;;5074771;28;20076;-77
2023/03/08 06:16:08;;;;;;;20.10;12.63;;;-1.20;99.90;;;;;;5064446;28;20044;-77
2023/03/08 06:18:39;;;;;;;18.95;11.40;;;-1.60;99.90;;;;;;5051963;28;20053;-77
2023/03/08 06:21:26;;;;;;;17.30;12.18;;;-1.60;99.90;;;;;;5066410;28;20488;-77
2023/03/08 06:23:52;;;;;;;16.23;11.20;;;-1.60;99.90;;;;;;5072526;28;20509;-77
2023/03/08 06:26:18;;;;;;;17.63;11.82;;;-1.60;99.90;;;;;;5062942;28;20040;-77
2023/03/08 06:28:44;;;;;;;16.50;11.02;;;-1.60;99.90;;;;;;5052055;28;20153;-77
2023/03/08 06:31:12;;;;;;;16.90;11.60;;;-1.60;99.90;;;;;;5066735;28;20162;-77
2023/03/08 06:33:38;;;;;;;17.42;11.60;;;-1.50;99.90;;;;;;5066171;28;20053;-77
2023/03/08 06:36:07;;;;;;;13.27;10.00;;;-1.20;99.90;;;;;;5069627;28;20364;-77
2023/03/08 06:38:35;;;;;;;18.40;11.20;;;-1.50;99.90;;;;;;5054365;28;20059;-77
2023/03/08 06:41:02;;;;;;;17.77;11.20;;;-1.20;99.90;;;;;;5070237;28;20476;-77
2023/03/08 06:43:28;;;;;;;14.20;9.93;;;-1.40;99.90;;;;;;5071134;28;20052;-77
2023/03/08 06:45:54;;;;;;;14.50;10.20;;;-1.50;99.90;;;;;;5069115;28;20048;-77
2023/03/08 06:48:20;;;;;;;14.15;9.75;;;-1.00;99.90;;;;;;5052186;28;20045;-77
2023/03/08 06:50:46;;;;;;;17.45;11.35;;;-1.10;99.90;;;;;;5069749;28;20041;-77
2023/03/08 06:53:12;;;;;;;16.65;11.30;;;-1.40;99.90;;;;;;5053614;28;20476;-77
2023/03/08 06:55:39;;;;;;;18.92;12.07;;;-1.10;99.90;;;;;;5078391;28;20049;-77
2023/03/08 06:58:06;;;;;;;17.30;11.73;;;-1.10;99.90;;;;;;5049013;28;20047;-77
2023/03/08 07:00:32;;;;;;;13.32;9.90;;;-1.50;99.90;;;;;;5063152;28;20052;-77
2023/03/08 07:02:58;;;;;;;16.58;11.45;;;-1.50;99.90;;;;;;5035941;28;20046;-77
2023/03/08 07:05:24;;;;;;;18.73;10.70;;;-1.40;99.90;;;;;;5070312;28;20450;-77
2023/03/08 07:07:50;;;;;;;18.25;11.82;;;-1.40;99.90;;;;;;5069903;28;20048;-77
2023/03/08 07:10:19;;;;;;;16.48;10.50;;;-1.30;99.90;;;;;;5052253;28;20459;-77
2023/03/08 07:12:48;;;;;;;18.45;13.07;;;-1.10;99.90;;;;;;5050429;28;20415;-77
2023/03/08 07:15:15;;;;;;;17.17;10.98;;;-1.30;99.90;;;;;;5065784;28;20454;-77
2023/03/08 07:17:45;;;;;;;15.30;11.45;;;-1.20;99.90;;;;;;5081327;28;20123;-77
2023/03/08 07:20:13;;;;;;;18.55;13.07;;;-1.20;99.90;;;;;;5049399;28;20044;-77
2023/03/08 07:22:43;;;;;;;17.70;13.07;;;-1.20;99.90;;;;;;5082354;28;20047;-77
2023/03/08 07:25:17;;;;;;;20.75;14.65;;;-1.10;99.90;;;;;;5067347;28;20048;-77
2023/03/08 07:27:44;;;;;;;18.98;14.65;;;0.10;99.90;;;;;;5082572;28;20053;-77
2023/03/08 07:30:11;;;;;;;20.65;14.38;;;-0.60;99.90;;;;;;5065759;28;20047;-77
2023/03/08 07:32:39;;;;;;;18.42;14.00;;;-0.90;99.90;;;;;;5067225;28;20040;-77
2023/03/08 07:35:06;;;;;;;22.73;15.60;;;0.10;99.90;;;;;;5042383;28;20048;-77
2023/03/08 07:37:32;;;;;;;24.90;17.50;;;-0.80;99.90;;;;;;5065878;28;20450;-77
2023/03/08 07:39:58;;;;;;;24.83;17.75;;;-0.70;99.90;;;;;;5065053;28;20052;-77
2023/03/08 07:42:26;;;;;;;21.55;16.33;;;-0.70;99.90;;;;;;5067897;28;20472;-77
2023/03/08 07:44:52;;;;;;;23.20;16.58;;;-0.60;99.90;;;;;;5064984;28;20059;-77
2023/03/08 07:47:18;;;;;;;19.48;15.23;;;-0.50;99.90;;;;;;5080913;28;20102;-77
2023/03/08 07:49:44;;;;;;;20.08;14.60;;;-0.40;99.90;;;;;;5049073;28;20048;-77
2023/03/08 07:52:09;;;;;;;21.73;16.35;;;-0.10;99.90;;;;;;5067232;28;20057;-77
2023/03/08 07:54:35;;;;;;;27.05;19.52;;;-0.20;99.90;;;;;;5079255;28;20104;-77
2023/03/08 07:57:01;;;;;;;28.05;19.52;;;-0.20;99.90;;;;;;5063997;28;20381;-77
2023/03/08 07:59:28;;;;;;;26.75;20.75;;;-0.10;99.90;;;;;;5060843;28;20055;-77
2023/03/08 08:01:53;;;;;;;25.65;19.25;;;0.00;99.90;;;;;;5065074;28;20048;-77
2023/03/08 08:04:21;;;;;;;25.13;19.63;;;0.00;99.90;;;;;;5065808;28;20059;-77
2023/03/08 08:06:48;;;;;;;28.17;19.83;;;1.10;99.90;;;;;;5067848;28;20093;-77
2023/03/08 08:09:14;;;;;;;25.38;19.70;;;0.20;99.90;;;;;;5068729;28;20048;-76
2023/03/08 08:11:41;;;;;;;24.70;18.83;;;0.70;99.90;;;;;;5066254;28;20388;-77
2023/03/08 08:14:07;;;;;;;26.05;17.88;;;0.30;99.90;;;;;;5066559;28;20045;-77
2023/03/08 08:16:33;;;;;;;25.80;19.90;;;0.40;99.90;;;;;;5069499;28;20041;-78
2023/03/08 08:18:59;;;;;;;24.25;18.10;;;0.40;99.90;;;;;;5063798;28;20055;-76
2023/03/08 08:21:24;;;;;;;26.02;19.73;;;0.40;99.90;;;;;;5064746;28;20493;-77
2023/03/08 08:23:50;;;;;;;26.60;19.45;;;0.70;99.90;;;;;;5068186;28;20072;-76
2023/03/08 08:26:20;;;;;;;25.23;17.98;;;0.40;99.90;;;;;;5068055;28;20053;-77
2023/03/08 08:28:51;;;;;;;23.30;17.00;;;0.50;99.90;;;;;;5065819;28;20067;-76
2023/03/08 08:31:19;;;;;;;25.17;17.33;;;0.90;99.90;;;;;;5050143;28;20040;-76
2023/03/08 08:33:45;;;;;;;27.50;18.00;;;0.50;99.90;;;;;;5067352;28;20537;-76
2023/03/08 08:36:14;;;;;;;25.60;17.27;;;0.80;99.90;;;;;;5066899;28;20045;-77
2023/03/08 08:38:41;;;;;;;30.00;19.27;;;0.60;99.90;;;;;;5067699;28;20040;-76
2023/03/08 08:41:07;;;;;;;29.95;19.70;;;0.70;99.90;;;;;;5070028;28;20052;-77
2023/03/08 08:43:35;;;;;;;24.23;14.23;;;0.40;99.90;;;;;;5067591;28;20041;-77
2023/03/08 08:46:02;;;;;;;26.13;14.02;;;0.40;99.90;;;;;;5069148;28;20051;-77
2023/03/08 08:48:28;;;;;;;30.25;20.10;;;0.30;99.90;;;;;;5060925;28;20087;-77
2023/03/08 08:50:54;;;;;;;34.10;23.55;;;0.30;99.90;;;;;;5071046;28;20037;-77
2023/03/08 08:53:20;;;;;;;42.33;26.67;;;0.10;99.90;;;;;;5037291;28;20048;-76
2023/03/08 08:55:46;;;;;;;30.77;20.25;;;0.20;99.90;;;;;;5070197;28;20127;-77
2023/03/08 08:58:13;;;;;;;29.50;19.00;;;0.30;99.90;;;;;;5072321;28;20147;-77
2023/03/08 09:00:39;;;;;;;31.98;19.92;;;0.30;99.90;;;;;;5068477;28;20053;-76
2023/03/08 09:03:06;;;;;;;30.70;19.77;;;0.30;99.90;;;;;;5072941;28;20052;-76
2023/03/08 09:05:32;;;;;;;32.72;20.75;;;0.20;99.90;;;;;;5069213;28;20111;-76
2023/03/08 09:07:59;;;;;;;33.10;21.60;;;0.30;99.90;;;;;;5051290;28;20148;-76
2023/03/08 09:10:31;;;;;;;31.40;18.50;;;0.30;99.90;;;;;;5060243;28;20120;-76
2023/03/08 09:13:00;;;;;;;35.47;22.50;;;0.30;99.90;;;;;;5050333;28;20048;-76
2023/03/08 09:15:26;;;;;;;31.55;17.38;;;0.20;99.90;;;;;;5046559;28;20526;-77
2023/03/08 09:17:53;;;;;;;33.10;20.73;;;0.30;99.90;;;;;;5063479;28;20337;-76
2023/03/08 09:20:19;;;;;;;37.00;22.45;;;0.30;99.90;;;;;;5068901;28;20049;-76
2023/03/08 09:22:44;;;;;;;42.20;23.52;;;0.30;99.90;;;;;;5069586;28;20388;-76
2023/03/08 09:25:11;;;;;;;42.78;25.65;;;0.50;99.90;;;;;;5053626;28;20041;-76
2023/03/08 09:27:38;;;;;;;43.83;23.98;;;0.30;99.90;;;;;;5051194;28;20045;-76
2023/03/08 09:30:07;;;;;;;43.35;24.15;;;0.60;99.90;;;;;;5066551;28;20040;-76
2023/03/08 09:32:35;;;;;;;43.78;23.90;;;0.30;99.90;;;;;;5072387;28;20101;-76
2023/03/08 09:35:01;;;;;;;35.88;20.65;;;0.40;99.90;;;;;;5051194;28;20056;-76
2023/03/08 09:37:27;;;;;;;37.20;21.90;;;0.40;99.90;;;;;;5070284;28;20063;-76
2023/03/08 09:39:53;;;;;;;33.17;16.10;;;0.40;99.90;;;;;;5071498;28;20056;-76
2023/03/08 09:42:26;;;;;;;29.63;18.05;;;0.40;99.90;;;;;;5073254;28;20385;-78
2023/03/08 09:44:52;;;;;;;34.80;18.48;;;0.50;99.90;;;;;;5073168;28;20044;-76
2023/03/08 09:47:25;;;;;;;36.42;19.40;;;0.30;99.90;;;;;;5070694;28;20059;-77
2023/03/08 09:49:57;;;;;;;47.20;21.60;;;0.50;99.90;;;;;;5054991;28;20044;-76
2023/03/08 09:52:38;;;;;;;33.28;18.92;;;0.60;99.90;;;;;;5059966;28;20068;-76
2023/03/08 09:55:12;;;;;;;41.75;19.30;;;0.50;99.90;;;;;;5055463;28;20048;-76
2023/03/08 09:57:44;;;;;;;38.92;19.73;;;0.50;99.90;;;;;;5056216;28;20061;-77
2023/03/08 10:00:30;;;;;;;30.98;18.33;;;0.50;99.90;;;;;;5062856;28;20048;-77
2023/03/08 10:03:11;;;;;;;47.53;20.70;;;0.60;99.90;;;;;;5073216;28;20052;-77
2023/03/08 10:05:47;;;;;;;51.40;21.23;;;0.60;99.90;;;;;;5060393;28;20045;-77
2023/03/08 10:08:17;;;;;;;34.92;20.80;;;0.60;99.90;;;;;;5066739;28;20392;-77
2023/03/08 10:11:03;;;;;;;43.58;18.30;;;0.70;99.90;;;;;;5051524;28;20068;-77
2023/03/08 10:13:33;;;;;;;44.28;17.95;;;1.00;99.90;;;;;;5072678;28;20098;-77
2023/03/08 10:16:01;;;;;;;44.70;19.17;;;0.80;99.90;;;;;;5058688;28;20063;-77
2023/03/08 10:18:38;;;;;;;34.70;19.40;;;0.80;99.90;;;;;;5074092;28;20139;-77
2023/03/08 10:21:05;;;;;;;34.35;16.40;;;0.80;99.90;;;;;;5072154;28;20497;-77
2023/03/08 10:23:32;;;;;;;29.50;17.30;;;0.80;99.90;;;;;;5058482;28;20076;-77
2023/03/08 10:25:59;;;;;;;29.80;17.15;;;1.30;99.90;;;;;;5060392;28;20049;-78
2023/03/08 10:28:26;;;;;;;23.33;12.65;;;0.90;99.90;;;;;;5070119;28;20044;-79
2023/03/08 10:31:03;;;;;;;27.13;16.13;;;0.90;99.90;;;;;;5062217;28;20049;-78
2023/03/08 10:33:34;;;;;;;27.92;16.48;;;1.10;99.90;;;;;;5066800;28;20138;-78
2023/03/08 10:36:15;;;;;;;30.80;18.17;;;1.70;99.90;;;;;;5052231;28;20086;-77
2023/03/08 10:38:41;;;;;;;26.95;15.43;;;0.90;99.90;;;;;;5070736;28;20117;-77
2023/03/08 10:41:16;;;;;;;30.15;17.25;;;1.00;99.90;;;;;;5064454;28;20050;-77
2023/03/08 10:43:50;;;;;;;30.77;16.67;;;1.00;99.90;;;;;;5072345;28;20037;-77
2023/03/08 10:46:19;;;;;;;30.67;15.55;;;1.10;99.90;;;;;;5065828;28;20178;-78
2023/03/08 10:48:45;;;;;;;25.40;13.48;;;1.60;99.90;;;;;;5071574;28;20059;-77
2023/03/08 10:51:26;;;;;;;31.77;18.75;;;1.50;99.90;;;;;;5070041;28;20040;-77
2023/03/08 10:54:03;;;;;;;30.80;19.27;;;1.20;99.90;;;;;;5071346;28;20491;-77
2023/03/08 10:56:44;;;;;;;25.80;13.88;;;1.20;99.90;;;;;;5071430;28;20053;-78
2023/03/08 10:59:19;;;;;;;25.90;16.10;;;1.30;99.90;;;;;;5071136;28;20480;-77
2023/03/08 11:01:54;;;;;;;26.88;16.13;;;1.30;99.90;;;;;;5050751;28;20124;-77
2023/03/08 11:04:22;;;;;;;29.65;16.50;;;1.30;99.90;;;;;;5066852;28;20370;-77
2023/03/08 11:06:48;;;;;;;28.40;17.77;;;1.20;99.90;;;;;;5071217;28;20036;-77
2023/03/08 11:09:29;;;;;;;27.52;16.55;;;1.30;99.90;;;;;;5064725;28;20040;-77
2023/03/08 11:11:57;;;;;;;28.77;17.92;;;1.30;99.90;;;;;;5055887;28;20084;-78
2023/03/08 11:14:24;;;;;;;25.30;15.05;;;1.40;99.90;;;;;;5068144;28;20064;-77
2023/03/08 11:16:59;;;;;;;32.72;20.02;;;1.50;99.90;;;;;;5061175;28;20056;-78
2023/03/08 11:19:40;;;;;;;29.75;16.65;;;1.40;99.90;;;;;;5071638;28;20138;-80
2023/03/08 11:22:21;;;;;;;29.60;16.85;;;1.50;99.90;;;;;;5068171;28;20059;-79
2023/03/08 11:24:59;;;;;;;32.60;19.25;;;1.60;99.90;;;;;;5038292;28;20044;-77
2023/03/08 11:27:52;;;;;;;31.17;18.63;;;1.60;99.90;;;;;;5072940;28;20048;-77
2023/03/08 11:30:42;;;;;;;31.30;18.27;;;1.60;99.90;;;;;;5068137;28;20102;-78
2023/03/08 11:33:13;;;;;;;37.03;23.13;;;1.70;99.90;;;;;;5070428;28;20043;-77
2023/03/08 11:35:59;;;;;;;33.55;19.70;;;1.70;99.90;;;;;;5061812;28;20472;-77
2023/03/08 11:38:30;;;;;;;32.28;19.58;;;1.70;99.90;;;;;;5086727;28;20044;-77
2023/03/08 11:41:05;;;;;;;28.77;18.20;;;1.80;99.90;;;;;;5071039;28;20059;-79
2023/03/08 11:43:43;;;;;;;30.55;17.50;;;1.90;99.90;;;;;;5070036;28;20677;-78
2023/03/08 11:46:35;;;;;;;32.13;20.60;;;1.90;99.90;;;;;;5069577;28;20504;-77
2023/03/08 11:49:17;;;;;;;35.10;21.80;;;1.80;99.90;;;;;;5059739;28;20182;-77
2023/03/08 11:51:53;;;;;;;26.45;16.25;;;1.80;99.90;;;;;;5084031;28;20111;-77
2023/03/08 11:54:43;;;;;;;29.40;17.95;;;2.00;99.90;;;;;;5063970;28;20070;-77
2023/03/08 11:57:15;;;;;;;27.20;14.63;;;1.90;99.90;;;;;;5068846;28;20048;-77
2023/03/08 11:59:51;;;;;;;31.00;18.40;;;2.10;99.90;;;;;;5068939;28;20044;-77
2023/03/08 12:02:33;;;;;;;30.83;18.55;;;2.10;99.90;;;;;;5068676;28;20299;-78
2023/03/08 12:05:10;;;;;;;32.40;19.67;;;2.20;99.90;;;;;;5068502;28;20044;-77
2023/03/08 12:07:38;;;;;;;37.83;21.38;;;2.30;99.90;;;;;;5052216;28;20048;-77
2023/03/08 12:10:25;;;;;;;38.50;22.67;;;2.40;99.90;;;;;;5064034;28;20087;-77
2023/03/08 12:12:58;;;;;;;39.30;21.63;;;2.40;99.90;;;;;;5068489;28;20052;-77
2023/03/08 12:15:42;;;;;;;42.83;24.20;;;2.50;99.90;;;;;;5068054;28;20045;-77
2023/03/08 12:18:19;;;;;;;42.95;23.15;;;2.60;99.90;;;;;;5071682;28;20080;-77
2023/03/08 12:20:45;;;;;;;48.88;26.63;;;2.60;99.90;;;;;;5064014;28;20060;-77
2023/03/08 12:23:37;;;;;;;46.45;24.92;;;2.60;99.90;;;;;;5074032;28;20127;-77
2023/03/08 12:26:24;;;;;;;47.80;22.75;;;2.70;99.90;;;;;;5070507;28;20064;-77
2023/03/08 12:29:02;;;;;;;49.95;25.05;;;2.70;99.90;;;;;;5052744;28;20056;-77
2023/03/08 12:31:36;;;;;;;45.83;24.52;;;2.70;99.90;;;;;;5073038;28;20101;-78
2023/03/08 12:34:24;;;;;;;45.25;23.77;;;2.80;99.90;;;;;;5070034;28;20083;-77
2023/03/08 12:36:50;;;;;;;45.95;23.67;;;2.90;99.90;;;;;;5089894;28;20040;-77
2023/03/08 12:39:36;;;;;;;46.03;24.15;;;2.80;99.90;;;;;;5074761;28;20480;-77
2023/03/08 12:42:12;;;;;;;46.00;24.25;;;2.80;99.90;;;;;;5070130;28;20493;-77